sensor_id;sensor_type;location;lat;lon;timestamp;temperature;humidity
41533;DHT22;27262;-35.248;149.138;2023-02-28T00:00:16;23.90;59.30
41533;DHT22;27262;-35.248;149.138;2023-02-28T00:02:47;23.90;59.20
41533;DHT22;27262;-35.248;149.138;2023-02-28T00:05:20;23.90;59.20
41533;DHT22;27262;-35.248;149.138;2023-02-28T00:07:54;24.00;59.50
41533;DHT22;27262;-35.248;149.138;2023-02-28T00:10:28;23.90;59.50
41533;DHT22;27262;-35.248;149.138;2023-02-28T00:13:04;23.90;59.50
41533;DHT22;27262;-35.248;149.138;2023-02-28T00:15:35;24.00;59.50
41533;DHT22;27262;-35.248;149.138;2023-02-28T00:18:05;24.00;59.60
41533;DHT22;27262;-35.248;149.138;2023-02-28T00:20:36;24.00;59.60
41533;DHT22;27262;-35.248;149.138;2023-02-28T00:23:06;24.00;59.60
41533;DHT22;27262;-35.248;149.138;2023-02-28T00:25:36;24.00;59.70
41533;DHT22;27262;-35.248;149.138;2023-02-28T00:28:07;24.00;59.60
41533;DHT22;27262;-35.248;149.138;2023-02-28T00:30:37;24.00;59.50
41533;DHT22;27262;-35.248;149.138;2023-02-28T00:33:07;24.00;59.50
41533;DHT22;27262;-35.248;149.138;2023-02-28T00:35:38;24.10;59.50
41533;DHT22;27262;-35.248;149.138;2023-02-28T00:38:08;24.10;59.50
41533;DHT22;27262;-35.248;149.138;2023-02-28T00:40:39;24.10;59.40
41533;DHT22;27262;-35.248;149.138;2023-02-28T00:43:09;24.10;59.50
41533;DHT22;27262;-35.248;149.138;2023-02-28T00:45:39;24.10;59.50
41533;DHT22;27262;-35.248;149.138;2023-02-28T00:48:10;24.10;59.60
41533;DHT22;27262;-35.248;149.138;2023-02-28T00:50:40;24.10;59.60
41533;DHT22;27262;-35.248;149.138;2023-02-28T00:53:10;24.10;59.60
41533;DHT22;27262;-35.248;149.138;2023-02-28T00:55:41;24.20;59.60
41533;DHT22;27262;-35.248;149.138;2023-02-28T00:58:11;24.20;59.60
41533;DHT22;27262;-35.248;149.138;2023-02-28T01:00:41;24.20;59.60
41533;DHT22;27262;-35.248;149.138;2023-02-28T01:03:11;24.20;59.50
41533;DHT22;27262;-35.248;149.138;2023-02-28T01:05:42;24.20;59.50
41533;DHT22;27262;-35.248;149.138;2023-02-28T01:08:13;24.20;59.40
41533;DHT22;27262;-35.248;149.138;2023-02-28T01:10:43;24.20;59.50
41533;DHT22;27262;-35.248;149.138;2023-02-28T01:13:15;24.30;59.40
41533;DHT22;27262;-35.248;149.138;2023-02-28T01:15:54;24.30;59.40
41533;DHT22;27262;-35.248;149.138;2023-02-28T01:18:25;24.30;59.30
41533;DHT22;27262;-35.248;149.138;2023-02-28T01:20:56;24.30;59.30
41533;DHT22;27262;-35.248;149.138;2023-02-28T01:23:26;24.30;59.30
41533;DHT22;27262;-35.248;149.138;2023-02-28T01:25:56;24.30;59.30
41533;DHT22;27262;-35.248;149.138;2023-02-28T01:28:27;24.30;59.30
41533;DHT22;27262;-35.248;149.138;2023-02-28T01:30:59;24.30;59.30
41533;DHT22;27262;-35.248;149.138;2023-02-28T01:33:29;24.30;59.30
41533;DHT22;27262;-35.248;149.138;2023-02-28T01:36:11;24.30;59.20
41533;DHT22;27262;-35.248;149.138;2023-02-28T01:38:42;24.40;59.20
41533;DHT22;27262;-35.248;149.138;2023-02-28T01:41:22;24.30;59.20
41533;DHT22;27262;-35.248;149.138;2023-02-28T01:44:55;24.40;59.20
41533;DHT22;27262;-35.248;149.138;2023-02-28T01:46:48;24.40;59.20
41533;DHT22;27262;-35.248;149.138;2023-02-28T01:49:19;24.40;59.20
41533;DHT22;27262;-35.248;149.138;2023-02-28T01:51:54;24.40;59.20
41533;DHT22;27262;-35.248;149.138;2023-02-28T01:54:29;24.40;59.10
41533;DHT22;27262;-35.248;149.138;2023-02-28T01:57:13;24.40;59.10
41533;DHT22;27262;-35.248;149.138;2023-02-28T01:59:57;24.40;58.90
41533;DHT22;27262;-35.248;149.138;2023-02-28T02:02:29;24.40;58.90
41533;DHT22;27262;-35.248;149.138;2023-02-28T02:05:11;24.50;58.90
41533;DHT22;27262;-35.248;149.138;2023-02-28T02:07:45;24.50;58.90
41533;DHT22;27262;-35.248;149.138;2023-02-28T02:10:46;24.50;58.90
41533;DHT22;27262;-35.248;149.138;2023-02-28T02:24:22;24.60;58.50
41533;DHT22;27262;-35.248;149.138;2023-02-28T02:38:05;24.60;59.10
41533;DHT22;27262;-35.248;149.138;2023-02-28T02:43:45;24.60;58.30
41533;DHT22;27262;-35.248;149.138;2023-02-28T02:46:21;24.60;58.30
41533;DHT22;27262;-35.248;149.138;2023-02-28T02:48:54;24.60;58.30
41533;DHT22;27262;-35.248;149.138;2023-02-28T02:51:27;24.70;58.30
41533;DHT22;27262;-35.248;149.138;2023-02-28T02:56:34;24.70;58.20
41533;DHT22;27262;-35.248;149.138;2023-02-28T02:59:11;24.70;58.20
41533;DHT22;27262;-35.248;149.138;2023-02-28T03:01:43;24.70;58.10
41533;DHT22;27262;-35.248;149.138;2023-02-28T03:04:18;24.70;58.10
41533;DHT22;27262;-35.248;149.138;2023-02-28T03:06:51;24.70;58.10
41533;DHT22;27262;-35.248;149.138;2023-02-28T03:09:26;24.80;58.00
41533;DHT22;27262;-35.248;149.138;2023-02-28T03:11:57;24.80;58.00
41533;DHT22;27262;-35.248;149.138;2023-02-28T03:23:23;24.90;57.80
41533;DHT22;27262;-35.248;149.138;2023-02-28T03:26:16;24.90;57.80
41533;DHT22;27262;-35.248;149.138;2023-02-28T03:29:12;24.90;57.60
41533;DHT22;27262;-35.248;149.138;2023-02-28T03:31:56;24.90;57.60
41533;DHT22;27262;-35.248;149.138;2023-02-28T03:34:38;24.90;57.80
41533;DHT22;27262;-35.248;149.138;2023-02-28T03:37:14;24.90;57.50
41533;DHT22;27262;-35.248;149.138;2023-02-28T03:40:00;24.90;57.50
41533;DHT22;27262;-35.248;149.138;2023-02-28T03:42:35;24.90;57.40
41533;DHT22;27262;-35.248;149.138;2023-02-28T03:45:16;24.90;57.50
41533;DHT22;27262;-35.248;149.138;2023-02-28T03:48:07;25.00;57.50
41533;DHT22;27262;-35.248;149.138;2023-02-28T03:50:44;25.00;57.40
41533;DHT22;27262;-35.248;149.138;2023-02-28T03:56:42;25.00;57.30
41533;DHT22;27262;-35.248;149.138;2023-02-28T03:59:01;25.10;57.40
41533;DHT22;27262;-35.248;149.138;2023-02-28T04:01:43;25.10;57.30
41533;DHT22;27262;-35.248;149.138;2023-02-28T04:04:17;25.10;57.10
41533;DHT22;27262;-35.248;149.138;2023-02-28T04:06:50;25.10;57.10
41533;DHT22;27262;-35.248;149.138;2023-02-28T04:09:21;25.10;57.10
41533;DHT22;27262;-35.248;149.138;2023-02-28T04:11:52;25.10;57.00
41533;DHT22;27262;-35.248;149.138;2023-02-28T04:14:25;25.20;57.00
41533;DHT22;27262;-35.248;149.138;2023-02-28T04:16:56;25.20;57.00
41533;DHT22;27262;-35.248;149.138;2023-02-28T04:19:26;25.20;56.90
41533;DHT22;27262;-35.248;149.138;2023-02-28T04:21:56;25.20;56.70
41533;DHT22;27262;-35.248;149.138;2023-02-28T04:24:28;25.20;56.80
41533;DHT22;27262;-35.248;149.138;2023-02-28T04:26:59;25.20;56.70
41533;DHT22;27262;-35.248;149.138;2023-02-28T04:29:31;25.20;56.60
41533;DHT22;27262;-35.248;149.138;2023-02-28T04:32:02;25.30;56.60
41533;DHT22;27262;-35.248;149.138;2023-02-28T04:34:33;25.30;56.60
41533;DHT22;27262;-35.248;149.138;2023-02-28T04:37:04;25.30;56.70
41533;DHT22;27262;-35.248;149.138;2023-02-28T04:39:41;25.30;56.50
41533;DHT22;27262;-35.248;149.138;2023-02-28T04:42:12;25.40;56.60
41533;DHT22;27262;-35.248;149.138;2023-02-28T04:44:43;25.40;56.60
41533;DHT22;27262;-35.248;149.138;2023-02-28T04:47:13;25.40;56.60
41533;DHT22;27262;-35.248;149.138;2023-02-28T04:49:43;25.40;56.70
41533;DHT22;27262;-35.248;149.138;2023-02-28T04:52:14;25.40;56.90
41533;DHT22;27262;-35.248;149.138;2023-02-28T04:54:44;25.40;56.80
41533;DHT22;27262;-35.248;149.138;2023-02-28T04:57:14;25.40;56.70
41533;DHT22;27262;-35.248;149.138;2023-02-28T04:59:44;25.40;56.80
41533;DHT22;27262;-35.248;149.138;2023-02-28T05:02:15;25.40;56.70
41533;DHT22;27262;-35.248;149.138;2023-02-28T05:04:45;25.40;56.70
41533;DHT22;27262;-35.248;149.138;2023-02-28T05:07:16;25.40;56.60
41533;DHT22;27262;-35.248;149.138;2023-02-28T05:09:46;25.40;56.60
41533;DHT22;27262;-35.248;149.138;2023-02-28T05:12:16;25.50;56.50
41533;DHT22;27262;-35.248;149.138;2023-02-28T05:14:46;25.50;56.20
41533;DHT22;27262;-35.248;149.138;2023-02-28T05:17:17;25.50;56.10
41533;DHT22;27262;-35.248;149.138;2023-02-28T05:19:47;25.50;56.00
41533;DHT22;27262;-35.248;149.138;2023-02-28T05:22:17;25.50;55.90
41533;DHT22;27262;-35.248;149.138;2023-02-28T05:24:47;25.50;55.90
41533;DHT22;27262;-35.248;149.138;2023-02-28T05:27:18;25.50;55.80
41533;DHT22;27262;-35.248;149.138;2023-02-28T05:29:48;25.60;55.80
41533;DHT22;27262;-35.248;149.138;2023-02-28T05:32:19;25.60;55.70
41533;DHT22;27262;-35.248;149.138;2023-02-28T05:34:49;25.60;55.70
41533;DHT22;27262;-35.248;149.138;2023-02-28T05:37:19;25.60;55.60
41533;DHT22;27262;-35.248;149.138;2023-02-28T05:39:50;25.60;55.60
41533;DHT22;27262;-35.248;149.138;2023-02-28T05:42:20;25.60;55.50
41533;DHT22;27262;-35.248;149.138;2023-02-28T05:44:50;25.70;55.50
41533;DHT22;27262;-35.248;149.138;2023-02-28T05:47:21;25.60;55.40
41533;DHT22;27262;-35.248;149.138;2023-02-28T05:49:51;25.70;55.50
41533;DHT22;27262;-35.248;149.138;2023-02-28T05:52:22;25.70;55.50
41533;DHT22;27262;-35.248;149.138;2023-02-28T05:54:52;25.70;55.40
41533;DHT22;27262;-35.248;149.138;2023-02-28T05:57:23;25.70;55.50
41533;DHT22;27262;-35.248;149.138;2023-02-28T05:59:54;25.70;55.30
41533;DHT22;27262;-35.248;149.138;2023-02-28T06:02:24;25.70;55.30
41533;DHT22;27262;-35.248;149.138;2023-02-28T06:04:55;25.70;55.20
41533;DHT22;27262;-35.248;149.138;2023-02-28T06:07:25;25.80;55.10
41533;DHT22;27262;-35.248;149.138;2023-02-28T06:09:56;25.80;55.10
41533;DHT22;27262;-35.248;149.138;2023-02-28T06:12:26;25.80;55.10
41533;DHT22;27262;-35.248;149.138;2023-02-28T06:14:56;25.80;55.10
41533;DHT22;27262;-35.248;149.138;2023-02-28T06:17:26;25.80;55.00
41533;DHT22;27262;-35.248;149.138;2023-02-28T06:19:57;25.80;55.00
41533;DHT22;27262;-35.248;149.138;2023-02-28T06:22:27;25.80;54.90
41533;DHT22;27262;-35.248;149.138;2023-02-28T06:24:58;25.80;54.80
41533;DHT22;27262;-35.248;149.138;2023-02-28T06:27:28;25.80;54.80
41533;DHT22;27262;-35.248;149.138;2023-02-28T06:29:59;25.80;54.80
41533;DHT22;27262;-35.248;149.138;2023-02-28T06:32:29;25.80;54.80
41533;DHT22;27262;-35.248;149.138;2023-02-28T06:35:00;25.80;54.70
41533;DHT22;27262;-35.248;149.138;2023-02-28T06:37:31;25.80;54.80
41533;DHT22;27262;-35.248;149.138;2023-02-28T06:40:02;25.90;54.80
41533;DHT22;27262;-35.248;149.138;2023-02-28T06:42:32;25.80;54.70
41533;DHT22;27262;-35.248;149.138;2023-02-28T06:45:03;25.90;54.80
41533;DHT22;27262;-35.248;149.138;2023-02-28T06:47:39;25.90;54.60
41533;DHT22;27262;-35.248;149.138;2023-02-28T06:50:11;25.90;54.60
41533;DHT22;27262;-35.248;149.138;2023-02-28T06:52:42;25.90;54.60
41533;DHT22;27262;-35.248;149.138;2023-02-28T06:55:13;25.90;54.60
41533;DHT22;27262;-35.248;149.138;2023-02-28T06:57:43;25.90;54.40
41533;DHT22;27262;-35.248;149.138;2023-02-28T07:00:14;25.90;54.40
41533;DHT22;27262;-35.248;149.138;2023-02-28T07:02:44;25.90;54.40
41533;DHT22;27262;-35.248;149.138;2023-02-28T07:05:15;26.00;54.40
41533;DHT22;27262;-35.248;149.138;2023-02-28T07:07:45;26.00;54.60
41533;DHT22;27262;-35.248;149.138;2023-02-28T07:10:16;26.00;54.50
41533;DHT22;27262;-35.248;149.138;2023-02-28T07:12:47;26.00;54.50
41533;DHT22;27262;-35.248;149.138;2023-02-28T07:15:17;26.00;54.40
41533;DHT22;27262;-35.248;149.138;2023-02-28T07:17:47;26.00;54.30
41533;DHT22;27262;-35.248;149.138;2023-02-28T07:20:18;26.00;54.20
41533;DHT22;27262;-35.248;149.138;2023-02-28T07:22:48;26.10;54.40
41533;DHT22;27262;-35.248;149.138;2023-02-28T07:25:25;26.00;54.40
41533;DHT22;27262;-35.248;149.138;2023-02-28T07:27:56;26.10;54.30
41533;DHT22;27262;-35.248;149.138;2023-02-28T07:30:28;26.10;54.00
41533;DHT22;27262;-35.248;149.138;2023-02-28T07:32:58;26.10;54.30
41533;DHT22;27262;-35.248;149.138;2023-02-28T07:35:29;26.10;54.20
41533;DHT22;27262;-35.248;149.138;2023-02-28T07:38:00;26.10;54.00
41533;DHT22;27262;-35.248;149.138;2023-02-28T07:40:31;26.10;54.10
41533;DHT22;27262;-35.248;149.138;2023-02-28T07:43:01;26.10;54.10
41533;DHT22;27262;-35.248;149.138;2023-02-28T07:45:32;26.10;54.00
41533;DHT22;27262;-35.248;149.138;2023-02-28T07:48:03;26.10;54.00
41533;DHT22;27262;-35.248;149.138;2023-02-28T07:50:34;26.10;54.00
41533;DHT22;27262;-35.248;149.138;2023-02-28T07:53:04;26.10;53.80
41533;DHT22;27262;-35.248;149.138;2023-02-28T07:55:34;26.10;53.50
41533;DHT22;27262;-35.248;149.138;2023-02-28T07:58:05;26.10;53.80
41533;DHT22;27262;-35.248;149.138;2023-02-28T08:00:35;26.10;53.70
41533;DHT22;27262;-35.248;149.138;2023-02-28T08:03:05;26.10;53.50
41533;DHT22;27262;-35.248;149.138;2023-02-28T08:05:41;26.10;53.40
41533;DHT22;27262;-35.248;149.138;2023-02-28T08:08:11;26.10;53.10
41533;DHT22;27262;-35.248;149.138;2023-02-28T08:10:42;26.10;53.10
41533;DHT22;27262;-35.248;149.138;2023-02-28T08:13:13;26.10;53.00
41533;DHT22;27262;-35.248;149.138;2023-02-28T08:15:43;26.10;53.00
41533;DHT22;27262;-35.248;149.138;2023-02-28T08:18:15;26.10;53.00
41533;DHT22;27262;-35.248;149.138;2023-02-28T08:20:45;26.10;53.00
41533;DHT22;27262;-35.248;149.138;2023-02-28T08:23:15;26.10;53.00
41533;DHT22;27262;-35.248;149.138;2023-02-28T08:25:53;26.10;53.00
41533;DHT22;27262;-35.248;149.138;2023-02-28T08:28:24;26.20;52.90
41533;DHT22;27262;-35.248;149.138;2023-02-28T08:30:55;26.10;53.00
41533;DHT22;27262;-35.248;149.138;2023-02-28T08:33:26;26.10;53.10
41533;DHT22;27262;-35.248;149.138;2023-02-28T08:35:57;26.10;53.10
41533;DHT22;27262;-35.248;149.138;2023-02-28T08:38:27;26.10;53.20
41533;DHT22;27262;-35.248;149.138;2023-02-28T08:40:59;26.10;53.20
41533;DHT22;27262;-35.248;149.138;2023-02-28T08:43:30;26.10;53.40
41533;DHT22;27262;-35.248;149.138;2023-02-28T08:46:00;26.10;53.30
41533;DHT22;27262;-35.248;149.138;2023-02-28T08:48:33;26.10;53.40
41533;DHT22;27262;-35.248;149.138;2023-02-28T08:51:23;26.10;53.40
41533;DHT22;27262;-35.248;149.138;2023-02-28T08:53:59;26.10;53.60
41533;DHT22;27262;-35.248;149.138;2023-02-28T08:56:30;26.10;53.60
41533;DHT22;27262;-35.248;149.138;2023-02-28T08:59:00;26.20;53.70
41533;DHT22;27262;-35.248;149.138;2023-02-28T09:01:31;26.20;53.70
41533;DHT22;27262;-35.248;149.138;2023-02-28T09:04:02;26.20;53.90
41533;DHT22;27262;-35.248;149.138;2023-02-28T09:06:33;26.20;54.10
41533;DHT22;27262;-35.248;149.138;2023-02-28T09:09:04;26.20;54.30
41533;DHT22;27262;-35.248;149.138;2023-02-28T09:11:36;26.20;54.30
41533;DHT22;27262;-35.248;149.138;2023-02-28T09:14:07;26.20;54.20
41533;DHT22;27262;-35.248;149.138;2023-02-28T09:16:37;26.20;54.40
41533;DHT22;27262;-35.248;149.138;2023-02-28T09:19:11;26.20;54.10
41533;DHT22;27262;-35.248;149.138;2023-02-28T09:21:41;26.20;54.20
41533;DHT22;27262;-35.248;149.138;2023-02-28T09:24:12;26.10;54.10
41533;DHT22;27262;-35.248;149.138;2023-02-28T09:26:44;26.10;54.20
41533;DHT22;27262;-35.248;149.138;2023-02-28T09:29:32;26.10;54.30
41533;DHT22;27262;-35.248;149.138;2023-02-28T09:32:03;26.00;54.20
41533;DHT22;27262;-35.248;149.138;2023-02-28T09:34:35;26.10;54.30
41533;DHT22;27262;-35.248;149.138;2023-02-28T09:37:07;26.10;54.30
41533;DHT22;27262;-35.248;149.138;2023-02-28T09:39:37;26.10;54.30
41533;DHT22;27262;-35.248;149.138;2023-02-28T09:42:18;26.10;54.40
41533;DHT22;27262;-35.248;149.138;2023-02-28T09:44:51;26.10;54.30
41533;DHT22;27262;-35.248;149.138;2023-02-28T09:47:34;26.00;54.40
41533;DHT22;27262;-35.248;149.138;2023-02-28T09:52:49;26.00;54.60
41533;DHT22;27262;-35.248;149.138;2023-02-28T09:55:33;26.00;54.60
41533;DHT22;27262;-35.248;149.138;2023-02-28T09:58:24;26.00;54.60
41533;DHT22;27262;-35.248;149.138;2023-02-28T10:01:06;26.00;54.70
41533;DHT22;27262;-35.248;149.138;2023-02-28T10:03:40;26.00;54.80
41533;DHT22;27262;-35.248;149.138;2023-02-28T10:06:25;26.00;54.90
41533;DHT22;27262;-35.248;149.138;2023-02-28T10:09:05;26.00;54.90
41533;DHT22;27262;-35.248;149.138;2023-02-28T10:11:39;25.90;54.90
41533;DHT22;27262;-35.248;149.138;2023-02-28T10:14:14;25.90;54.90
41533;DHT22;27262;-35.248;149.138;2023-02-28T10:17:05;25.90;55.00
41533;DHT22;27262;-35.248;149.138;2023-02-28T10:20:00;25.90;55.00
41533;DHT22;27262;-35.248;149.138;2023-02-28T10:23:09;25.90;55.00
41533;DHT22;27262;-35.248;149.138;2023-02-28T10:25:44;25.90;55.10
41533;DHT22;27262;-35.248;149.138;2023-02-28T10:28:17;25.90;55.30
41533;DHT22;27262;-35.248;149.138;2023-02-28T10:30:52;25.90;55.30
41533;DHT22;27262;-35.248;149.138;2023-02-28T10:33:29;25.90;55.30
41533;DHT22;27262;-35.248;149.138;2023-02-28T10:36:01;25.90;55.40
41533;DHT22;27262;-35.248;149.138;2023-02-28T10:38:37;25.90;55.50
41533;DHT22;27262;-35.248;149.138;2023-02-28T10:41:33;25.90;55.50
41533;DHT22;27262;-35.248;149.138;2023-02-28T10:44:25;25.90;55.60
41533;DHT22;27262;-35.248;149.138;2023-02-28T10:46:56;25.90;55.70
41533;DHT22;27262;-35.248;149.138;2023-02-28T10:49:28;25.90;55.80
41533;DHT22;27262;-35.248;149.138;2023-02-28T10:52:00;25.80;55.80
41533;DHT22;27262;-35.248;149.138;2023-02-28T10:54:36;25.80;55.90
41533;DHT22;27262;-35.248;149.138;2023-02-28T10:57:22;25.80;56.10
41533;DHT22;27262;-35.248;149.138;2023-02-28T11:00:20;25.80;56.00
41533;DHT22;27262;-35.248;149.138;2023-02-28T11:02:51;25.80;56.10
41533;DHT22;27262;-35.248;149.138;2023-02-28T11:05:34;25.80;56.20
41533;DHT22;27262;-35.248;149.138;2023-02-28T11:08:15;25.80;56.20
41533;DHT22;27262;-35.248;149.138;2023-02-28T11:10:57;25.80;56.40
41533;DHT22;27262;-35.248;149.138;2023-02-28T11:13:35;25.80;56.40
41533;DHT22;27262;-35.248;149.138;2023-02-28T11:16:12;25.80;56.50
41533;DHT22;27262;-35.248;149.138;2023-02-28T11:18:51;25.80;56.60
41533;DHT22;27262;-35.248;149.138;2023-02-28T11:21:29;25.80;56.50
41533;DHT22;27262;-35.248;149.138;2023-02-28T11:24:16;25.80;56.60
41533;DHT22;27262;-35.248;149.138;2023-02-28T11:26:49;25.80;56.70
41533;DHT22;27262;-35.248;149.138;2023-02-28T11:29:25;25.80;56.70
41533;DHT22;27262;-35.248;149.138;2023-02-28T11:32:18;25.80;56.70
41533;DHT22;27262;-35.248;149.138;2023-02-28T11:35:21;25.80;56.80
41533;DHT22;27262;-35.248;149.138;2023-02-28T11:37:53;25.80;56.80
41533;DHT22;27262;-35.248;149.138;2023-02-28T11:49:47;25.70;57.10
41533;DHT22;27262;-35.248;149.138;2023-02-28T11:52:54;25.70;57.10
41533;DHT22;27262;-35.248;149.138;2023-02-28T11:55:35;25.70;57.20
41533;DHT22;27262;-35.248;149.138;2023-02-28T12:15:45;25.60;57.40
41533;DHT22;27262;-35.248;149.138;2023-02-28T12:18:34;25.60;57.50
41533;DHT22;27262;-35.248;149.138;2023-02-28T12:21:31;25.60;57.40
41533;DHT22;27262;-35.248;149.138;2023-02-28T12:27:17;25.60;57.50
41533;DHT22;27262;-35.248;149.138;2023-02-28T12:30:02;25.60;57.60
41533;DHT22;27262;-35.248;149.138;2023-02-28T12:32:45;25.60;57.60
41533;DHT22;27262;-35.248;149.138;2023-02-28T12:35:31;25.60;57.60
41533;DHT22;27262;-35.248;149.138;2023-02-28T12:38:15;25.50;57.50
41533;DHT22;27262;-35.248;149.138;2023-02-28T12:41:10;25.60;57.60
41533;DHT22;27262;-35.248;149.138;2023-02-28T12:44:11;25.50;57.60
41533;DHT22;27262;-35.248;149.138;2023-02-28T12:46:50;25.50;57.60
41533;DHT22;27262;-35.248;149.138;2023-02-28T12:49:36;25.50;57.60
41533;DHT22;27262;-35.248;149.138;2023-02-28T12:52:08;25.50;57.60
41533;DHT22;27262;-35.248;149.138;2023-02-28T12:54:53;25.50;57.70
41533;DHT22;27262;-35.248;149.138;2023-02-28T12:57:35;25.50;57.70
41533;DHT22;27262;-35.248;149.138;2023-02-28T13:00:13;25.50;57.80
41533;DHT22;27262;-35.248;149.138;2023-02-28T13:03:17;25.50;57.70
41533;DHT22;27262;-35.248;149.138;2023-02-28T13:06:10;25.50;57.70
41533;DHT22;27262;-35.248;149.138;2023-02-28T13:09:16;25.50;57.80
41533;DHT22;27262;-35.248;149.138;2023-02-28T13:11:52;25.50;57.80
41533;DHT22;27262;-35.248;149.138;2023-02-28T13:14:36;25.50;57.90
41533;DHT22;27262;-35.248;149.138;2023-02-28T13:17:11;25.50;57.90
41533;DHT22;27262;-35.248;149.138;2023-02-28T13:22:36;25.50;58.00
41533;DHT22;27262;-35.248;149.138;2023-02-28T13:27:54;25.50;58.00
41533;DHT22;27262;-35.248;149.138;2023-02-28T13:38:46;25.40;58.20
41533;DHT22;27262;-35.248;149.138;2023-02-28T13:49:29;25.40;58.20
41533;DHT22;27262;-35.248;149.138;2023-02-28T13:55:14;25.40;58.30
41533;DHT22;27262;-35.248;149.138;2023-02-28T13:58:10;25.40;58.30
41533;DHT22;27262;-35.248;149.138;2023-02-28T14:03:52;25.40;58.40
41533;DHT22;27262;-35.248;149.138;2023-02-28T14:06:38;25.30;58.30
41533;DHT22;27262;-35.248;149.138;2023-02-28T14:09:26;25.30;58.40
41533;DHT22;27262;-35.248;149.138;2023-02-28T14:11:57;25.30;58.40
41533;DHT22;27262;-35.248;149.138;2023-02-28T14:17:18;25.30;58.40
41533;DHT22;27262;-35.248;149.138;2023-02-28T14:19:49;25.20;58.30
41533;DHT22;27262;-35.248;149.138;2023-02-28T14:25:52;25.30;58.40
41533;DHT22;27262;-35.248;149.138;2023-02-28T14:31:37;25.20;58.40
41533;DHT22;27262;-35.248;149.138;2023-02-28T14:37:01;25.20;58.50
41533;DHT22;27262;-35.248;149.138;2023-02-28T14:39:32;25.20;58.50
41533;DHT22;27262;-35.248;149.138;2023-02-28T14:42:24;25.20;58.50
41533;DHT22;27262;-35.248;149.138;2023-02-28T14:44:57;25.20;58.50
41533;DHT22;27262;-35.248;149.138;2023-02-28T14:47:35;25.20;58.60
41533;DHT22;27262;-35.248;149.138;2023-02-28T14:50:23;25.20;58.50
41533;DHT22;27262;-35.248;149.138;2023-02-28T14:52:55;25.20;58.50
41533;DHT22;27262;-35.248;149.138;2023-02-28T14:55:35;25.20;58.60
41533;DHT22;27262;-35.248;149.138;2023-02-28T14:58:17;25.10;58.50
41533;DHT22;27262;-35.248;149.138;2023-02-28T15:00:53;25.10;58.60
41533;DHT22;27262;-35.248;149.138;2023-02-28T15:06:19;25.10;58.60
41533;DHT22;27262;-35.248;149.138;2023-02-28T15:09:17;25.10;58.70
41533;DHT22;27262;-35.248;149.138;2023-02-28T15:11:51;25.10;58.60
41533;DHT22;27262;-35.248;149.138;2023-02-28T15:14:35;25.10;58.70
41533;DHT22;27262;-35.248;149.138;2023-02-28T15:17:23;25.00;58.70
41533;DHT22;27262;-35.248;149.138;2023-02-28T15:19:56;25.10;58.70
41533;DHT22;27262;-35.248;149.138;2023-02-28T15:22:36;25.00;58.70
41533;DHT22;27262;-35.248;149.138;2023-02-28T15:25:09;25.00;58.70
41533;DHT22;27262;-35.248;149.138;2023-02-28T15:27:48;25.00;58.70
41533;DHT22;27262;-35.248;149.138;2023-02-28T15:30:27;25.00;58.70
41533;DHT22;27262;-35.248;149.138;2023-02-28T15:35:45;25.00;58.70
41533;DHT22;27262;-35.248;149.138;2023-02-28T15:38:27;25.00;58.70
41533;DHT22;27262;-35.248;149.138;2023-02-28T15:41:01;25.00;58.70
41533;DHT22;27262;-35.248;149.138;2023-02-28T15:43:35;25.00;58.70
41533;DHT22;27262;-35.248;149.138;2023-02-28T15:46:11;24.90;58.70
41533;DHT22;27262;-35.248;149.138;2023-02-28T15:48:53;24.90;58.70
41533;DHT22;27262;-35.248;149.138;2023-02-28T15:51:37;25.00;58.80
41533;DHT22;27262;-35.248;149.138;2023-02-28T15:54:20;24.90;58.70
41533;DHT22;27262;-35.248;149.138;2023-02-28T15:56:53;24.90;59.40
41533;DHT22;27262;-35.248;149.138;2023-02-28T15:59:31;24.90;58.80
41533;DHT22;27262;-35.248;149.138;2023-02-28T16:02:15;24.90;58.80
41533;DHT22;27262;-35.248;149.138;2023-02-28T16:07:48;24.90;58.80
41533;DHT22;27262;-35.248;149.138;2023-02-28T16:10:19;24.90;58.90
41533;DHT22;27262;-35.248;149.138;2023-02-28T16:12:56;24.80;58.80
41533;DHT22;27262;-35.248;149.138;2023-02-28T16:15:37;24.80;59.40
41533;DHT22;27262;-35.248;149.138;2023-02-28T16:18:12;24.80;58.80
41533;DHT22;27262;-35.248;149.138;2023-02-28T16:20:43;24.80;58.80
41533;DHT22;27262;-35.248;149.138;2023-02-28T16:23:14;24.80;58.90
41533;DHT22;27262;-35.248;149.138;2023-02-28T16:25:45;24.80;58.80
41533;DHT22;27262;-35.248;149.138;2023-02-28T16:28:25;24.80;58.80
41533;DHT22;27262;-35.248;149.138;2023-02-28T16:31:04;24.80;58.80
41533;DHT22;27262;-35.248;149.138;2023-02-28T16:33:35;24.80;58.90
41533;DHT22;27262;-35.248;149.138;2023-02-28T16:36:09;24.70;58.90
41533;DHT22;27262;-35.248;149.138;2023-02-28T16:38:39;24.70;58.80
41533;DHT22;27262;-35.248;149.138;2023-02-28T16:41:17;24.70;58.80
41533;DHT22;27262;-35.248;149.138;2023-02-28T16:43:50;24.70;58.80
41533;DHT22;27262;-35.248;149.138;2023-02-28T16:46:21;24.70;58.90
41533;DHT22;27262;-35.248;149.138;2023-02-28T16:48:51;24.70;58.90
41533;DHT22;27262;-35.248;149.138;2023-02-28T16:51:22;24.70;58.90
41533;DHT22;27262;-35.248;149.138;2023-02-28T16:53:52;24.70;58.90
41533;DHT22;27262;-35.248;149.138;2023-02-28T16:56:23;24.70;58.90
41533;DHT22;27262;-35.248;149.138;2023-02-28T16:58:58;24.70;58.90
41533;DHT22;27262;-35.248;149.138;2023-02-28T17:01:29;24.60;58.80
41533;DHT22;27262;-35.248;149.138;2023-02-28T17:04:01;24.70;58.90
41533;DHT22;27262;-35.248;149.138;2023-02-28T17:06:31;24.70;58.90
41533;DHT22;27262;-35.248;149.138;2023-02-28T17:09:02;24.60;58.90
41533;DHT22;27262;-35.248;149.138;2023-02-28T17:11:32;24.60;58.80
41533;DHT22;27262;-35.248;149.138;2023-02-28T17:14:03;24.60;58.90
41533;DHT22;27262;-35.248;149.138;2023-02-28T17:16:36;24.60;58.90
41533;DHT22;27262;-35.248;149.138;2023-02-28T17:19:15;24.60;58.90
41533;DHT22;27262;-35.248;149.138;2023-02-28T17:21:46;24.60;58.90
41533;DHT22;27262;-35.248;149.138;2023-02-28T17:24:16;24.60;58.90
41533;DHT22;27262;-35.248;149.138;2023-02-28T17:26:58;24.60;58.90
41533;DHT22;27262;-35.248;149.138;2023-02-28T17:29:29;24.50;58.90
41533;DHT22;27262;-35.248;149.138;2023-02-28T17:31:59;24.50;58.90
41533;DHT22;27262;-35.248;149.138;2023-02-28T17:34:44;24.50;58.90
41533;DHT22;27262;-35.248;149.138;2023-02-28T17:37:15;24.50;58.90